ID Time Temp Humidity Light Voltage Firmware Position Fcnt Gateways Distance RSSI LSNR Radiosettings
51 2018-09-21 11:52:35 14.875°C 81.9375% 3.38V v1 52.1992 / 5.41214 12933 tonzttn 0.014km -79 13.5 867.3Mhz, SF9BW125, 4/5CR
Meetjestad #4 (De Koperhorst) - -119 -9.8 867.3Mhz, SF9BW125, 4/5CR
51 2018-09-21 11:35:36 14.75°C 85.0625% 3.38V v1 52.1992 / 5.41214 12932 tonzttn 0.014km -81 13.5 868.3Mhz, SF9BW125, 4/5CR
eui-1dee1538af05a5a8 - -119 -13.8 868.3Mhz, SF9BW125, 4/5CR
51 2018-09-21 11:18:36 15.6875°C 84.875% 3.38V v1 52.1992 / 5.41214 12931 tonzttn 0.014km -79 12 867.1Mhz, SF9BW125, 4/5CR
Meetjestad #4 (De Koperhorst) - -119 -7 867.1Mhz, SF9BW125, 4/5CR
51 2018-09-21 11:01:37 16.125°C 76.75% 3.38V v1 52.1992 / 5.41214 12930 tonzttn 0.014km -87 13 868.1Mhz, SF9BW125, 4/5CR
Meetjestad #4 (De Koperhorst) - -118 -4.2 868.1Mhz, SF9BW125, 4/5CR
51 2018-09-21 10:44:37 15.6875°C 81.75% 3.38V v1 52.1992 / 5.41214 12929 tonzttn 0.014km -85 11.25 867.9Mhz, SF9BW125, 4/5CR
Meetjestad #4 (De Koperhorst) - -119 -1 867.9Mhz, SF9BW125, 4/5CR
51 2018-09-21 10:27:38 15.75°C 83.5625% 3.38V v1 52.1992 / 5.41214 12928 tonzttn 0.014km -87 9 868.5Mhz, SF9BW125, 4/5CR
Meetjestad #4 (De Koperhorst) - -108 -9.8 868.5Mhz, SF9BW125, 4/5CR
51 2018-09-21 10:10:39 15.4375°C 84.5% 3.38V v1 52.1992 / 5.41214 12927 tonzttn 0.014km -73 12.25 867.7Mhz, SF9BW125, 4/5CR
Meetjestad #4 (De Koperhorst) - -118 -9.2 867.7Mhz, SF9BW125, 4/5CR
51 2018-09-21 09:53:39 15.6875°C 84.75% 3.38V v1 52.1992 / 5.41214 12926 tonzttn 0.014km -83 12.25 868.3Mhz, SF9BW125, 4/5CR
51 2018-09-21 09:36:39 15.4375°C 96.5625% 3.38V v1 52.1992 / 5.41214 12925 tonzttn 0.014km -73 8.75 867.5Mhz, SF9BW125, 4/5CR
51 2018-09-21 09:19:40 15.5°C 96.6875% 3.38V v1 52.1992 / 5.41214 12924 tonzttn 0.014km -91 11.5 868.1Mhz, SF9BW125, 4/5CR
Meetjestad #4 (De Koperhorst) - -120 -1 868.1Mhz, SF9BW125, 4/5CR
51 2018-09-21 09:02:41 15.75°C 97.125% 3.38V v1 52.1992 / 5.41214 12923 tonzttn 0.014km -78 12.5 867.3Mhz, SF9BW125, 4/5CR
Meetjestad #4 (De Koperhorst) - -120 -4.5 867.3Mhz, SF9BW125, 4/5CR
51 2018-09-21 08:45:41 16.75°C 99.1875% 3.38V v1 52.1992 / 5.41214 12922 tonzttn 0.014km -75 9 868.5Mhz, SF9BW125, 4/5CR
51 2018-09-21 08:28:41 16.75°C 98.3125% 3.38V v1 52.1992 / 5.41214 12921 tonzttn 0.014km -78 11.5 867.1Mhz, SF9BW125, 4/5CR
Meetjestad #3 (Berghotel) 6.983km -115 -13.75 867.1Mhz, SF9BW125, 4/5CR
51 2018-09-21 08:11:41 17.125°C 94.625% 3.38V v1 52.1992 / 5.41214 12920 tonzttn 0.014km -70 12.5 868.3Mhz, SF9BW125, 4/5CR
51 2018-09-21 07:54:41 18°C 89.5625% 3.38V v1 52.1992 / 5.41214 12919 tonzttn 0.014km -79 12 867.9Mhz, SF9BW125, 4/5CR
Meetjestad #4 (De Koperhorst) - -121 -3.5 867.9Mhz, SF9BW125, 4/5CR
51 2018-09-21 07:37:40 19°C 80.375% 3.38V v1 52.1992 / 5.41214 12918 tonzttn 0.014km -73 12.5 868.1Mhz, SF9BW125, 4/5CR
Meetjestad #4 (De Koperhorst) - -121 -9.5 868.1Mhz, SF9BW125, 4/5CR
51 2018-09-21 07:20:40 18.9375°C 81.6875% 3.38V v1 52.1992 / 5.41214 12917 tonzttn 0.014km -71 12.25 867.7Mhz, SF9BW125, 4/5CR
Meetjestad #4 (De Koperhorst) - -120 -1.2 867.7Mhz, SF9BW125, 4/5CR
51 2018-09-21 07:03:39 19°C 80.0625% 3.38V v1 52.1992 / 5.41214 12916 tonzttn 0.014km -65 8.5 868.5Mhz, SF9BW125, 4/5CR
51 2018-09-21 06:46:39 19°C 80.4375% 3.38V v1 52.1992 / 5.41214 12915 tonzttn 0.014km -71 9 867.5Mhz, SF9BW125, 4/5CR
Meetjestad #4 (De Koperhorst) - -109 -14 867.5Mhz, SF9BW125, 4/5CR
51 2018-09-21 06:29:38 18.875°C 80.9375% 3.38V v1 52.1992 / 5.41214 12914 tonzttn 0.014km -75 12 868.3Mhz, SF9BW125, 4/5CR
51 2018-09-21 06:12:38 18.875°C 81.1875% 3.38V v1 52.1992 / 5.41214 12913 tonzttn 0.014km -69 12.75 867.3Mhz, SF9BW125, 4/5CR
Meetjestad #4 (De Koperhorst) - -118 -1.5 867.3Mhz, SF9BW125, 4/5CR
51 2018-09-21 05:55:37 18.9375°C 80.875% 3.38V v1 52.1992 / 5.41214 12912 tonzttn 0.014km -72 11.75 868.1Mhz, SF9BW125, 4/5CR
Meetjestad #4 (De Koperhorst) - -121 -4 868.1Mhz, SF9BW125, 4/5CR
51 2018-09-21 05:38:37 19.0625°C 80.625% 3.38V v1 52.1992 / 5.41214 12911 tonzttn 0.014km -71 11 867.1Mhz, SF9BW125, 4/5CR
51 2018-09-21 05:21:36 19.125°C 80.375% 3.38V v1 52.1992 / 5.41214 12910 tonzttn 0.014km -71 8.5 868.5Mhz, SF9BW125, 4/5CR
Meetjestad #4 (De Koperhorst) - -110 -8.2 868.5Mhz, SF9BW125, 4/5CR
51 2018-09-21 05:04:35 19.125°C 80.1875% 3.38V v1 52.1992 / 5.41214 12909 tonzttn 0.014km -71 12.25 867.9Mhz, SF9BW125, 4/5CR
Meetjestad #4 (De Koperhorst) - -117 -0.8 867.9Mhz, SF9BW125, 4/5CR
51 2018-09-21 04:47:35 19.125°C 80.25% 3.38V v1 52.1992 / 5.41214 12908 tonzttn 0.014km -69 11.75 868.3Mhz, SF9BW125, 4/5CR
51 2018-09-21 04:30:34 19.25°C 79.5% 3.38V v1 52.1992 / 5.41214 12907 tonzttn 0.014km -69 12.75 867.7Mhz, SF9BW125, 4/5CR
Meetjestad #4 (De Koperhorst) - -120 -10.2 867.7Mhz, SF9BW125, 4/5CR
51 2018-09-21 04:13:33 19.375°C 79.125% 3.38V v1 52.1992 / 5.41214 12906 tonzttn 0.014km -77 12.75 868.1Mhz, SF9BW125, 4/5CR
Meetjestad #4 (De Koperhorst) - -119 -11.2 868.1Mhz, SF9BW125, 4/5CR
51 2018-09-21 03:56:33 19.375°C 78.75% 3.38V v1 52.1992 / 5.41214 12905 tonzttn 0.014km -66 8 867.5Mhz, SF9BW125, 4/5CR
Meetjestad #4 (De Koperhorst) - -110 -10.8 867.5Mhz, SF9BW125, 4/5CR
mjs-gateway-6 - -120 -11.75 867.5Mhz, SF9BW125, 4/5CR
51 2018-09-21 03:39:32 19.4375°C 78.375% 3.38V v1 52.1992 / 5.41214 12904 tonzttn 0.014km -67 8.75 868.5Mhz, SF9BW125, 4/5CR
Meetjestad #4 (De Koperhorst) - -114 -11.5 868.5Mhz, SF9BW125, 4/5CR
51 2018-09-21 03:22:32 19.375°C 78.375% 3.38V v1 52.1992 / 5.41214 12903 tonzttn 0.014km -71 12.75 867.3Mhz, SF9BW125, 4/5CR
51 2018-09-21 03:05:31 19.5625°C 77.625% 3.38V v1 52.1992 / 5.41214 12902 tonzttn 0.014km -67 11.5 868.3Mhz, SF9BW125, 4/5CR
51 2018-09-21 02:48:30 19.6875°C 77.75% 3.38V v1 52.1992 / 5.41214 12901 tonzttn 0.014km -71 12.5 867.1Mhz, SF9BW125, 4/5CR
Meetjestad #4 (De Koperhorst) - -120 -5 867.1Mhz, SF9BW125, 4/5CR
51 2018-09-21 02:31:38 19.75°C 77.5625% 3.38V v1 52.1992 / 5.41214 12900 tonzttn 0.014km -69 12.25 868.1Mhz, SF9BW125, 4/5CR
Meetjestad #4 (De Koperhorst) - -120 -1.8 868.1Mhz, SF9BW125, 4/5CR
eui-1dee1538af05a5a8 - -121 -11 868.1Mhz, SF9BW125, 4/5CR
51 2018-09-21 02:14:37 19.8125°C 77.375% 3.38V v1 52.1992 / 5.41214 12899 tonzttn 0.014km -73 12 867.9Mhz, SF9BW125, 4/5CR
Meetjestad #4 (De Koperhorst) - -118 0 867.9Mhz, SF9BW125, 4/5CR
51 2018-09-21 01:57:37 19.6875°C 78.1875% 3.38V v1 52.1992 / 5.41214 12898 tonzttn 0.014km -69 7.75 868.5Mhz, SF9BW125, 4/5CR
Meetjestad #4 (De Koperhorst) - -113 -5.5 868.5Mhz, SF9BW125, 4/5CR
51 2018-09-21 01:40:36 19.6875°C 78.125% 3.38V v1 52.1992 / 5.41214 12897 tonzttn 0.014km -67 12.25 867.7Mhz, SF9BW125, 4/5CR
Meetjestad #4 (De Koperhorst) - -118 1 867.7Mhz, SF9BW125, 4/5CR
51 2018-09-21 01:23:35 19.8125°C 77.4375% 3.38V v1 52.1992 / 5.41214 12896 tonzttn 0.014km -66 11 868.3Mhz, SF9BW125, 4/5CR
Meetjestad #4 (De Koperhorst) - -111 -5.2 868.3Mhz, SF9BW125, 4/5CR
51 2018-09-21 01:06:34 19.75°C 78.125% 3.38V v1 52.1992 / 5.41214 12895 tonzttn 0.014km -67 8.25 867.5Mhz, SF9BW125, 4/5CR
51 2018-09-21 00:49:33 19.5625°C 79.1875% 3.38V v1 52.1992 / 5.41214 12894 tonzttn 0.014km -71 11 868.1Mhz, SF9BW125, 4/5CR
Meetjestad #4 (De Koperhorst) - -120 -9 868.1Mhz, SF9BW125, 4/5CR
51 2018-09-21 00:32:33 19.5625°C 79.1875% 3.38V v1 52.1992 / 5.41214 12893 tonzttn 0.014km -71 12 867.3Mhz, SF9BW125, 4/5CR
51 2018-09-21 00:15:32 19.5625°C 79.6875% 3.38V v1 52.1992 / 5.41214 12892 tonzttn 0.014km -67 9.25 868.5Mhz, SF9BW125, 4/5CR
51 2018-09-20 23:58:31 19.375°C 80.875% 3.38V v1 52.1992 / 5.41214 12891 tonzttn 0.014km -70 11.5 867.1Mhz, SF9BW125, 4/5CR
Meetjestad #4 (De Koperhorst) - -120 -8.5 867.1Mhz, SF9BW125, 4/5CR
51 2018-09-20 23:41:30 19.375°C 80.5% 3.38V v1 52.1992 / 5.41214 12890 tonzttn 0.014km -71 13.25 868.3Mhz, SF9BW125, 4/5CR
eui-1dee1538af05a5a8 - -121 -13.8 868.3Mhz, SF9BW125, 4/5CR
51 2018-09-20 23:24:30 19.3125°C 81.75% 3.38V v1 52.1992 / 5.41214 12889 tonzttn 0.014km -69 11.75 867.9Mhz, SF9BW125, 4/5CR
eui-1dee1538af05a5a8 - -120 -11.5 867.9Mhz, SF9BW125, 4/5CR
51 2018-09-20 23:07:29 19.125°C 82.1875% 3.38V v1 52.1992 / 5.41214 12888 tonzttn 0.014km -70 12.25 868.1Mhz, SF9BW125, 4/5CR
Meetjestad #4 (De Koperhorst) - -116 1 868.1Mhz, SF9BW125, 4/5CR
51 2018-09-20 22:50:28 18.875°C 83.75% 3.38V v1 52.1992 / 5.41214 12887 tonzttn 0.014km -75 11.75 867.7Mhz, SF9BW125, 4/5CR
Meetjestad #4 (De Koperhorst) - -119 -1.5 867.7Mhz, SF9BW125, 4/5CR
51 2018-09-20 22:33:28 18.8125°C 83.1875% 3.38V v1 52.1992 / 5.41214 12886 tonzttn 0.014km -71 8 868.5Mhz, SF9BW125, 4/5CR
51 2018-09-20 22:16:27 18.875°C 83.3125% 3.38V v1 52.1992 / 5.41214 12885 tonzttn 0.014km -69 9.5 867.5Mhz, SF9BW125, 4/5CR
Meetjestad #4 (De Koperhorst) - -114 -3.2 867.5Mhz, SF9BW125, 4/5CR
51 2018-09-20 21:59:27 18.9375°C 83% 3.38V v1 52.1992 / 5.41214 12884 tonzttn 0.014km -67 12.75 868.3Mhz, SF9BW125, 4/5CR
Meetjestad #4 (De Koperhorst) - -113 -9.5 868.3Mhz, SF9BW125, 4/5CR

Message count: 50

Node count: 1

Messages per node

Number of messages in list aboveNodes
5051

Statistics per gateway

GatewayNumber of messagesNumber of nodesNodes
tonzttn (filter)50151 (0.014km)
Meetjestad #4 (De Koperhorst) (filter)32151
eui-1dee1538af05a5a8 (filter)4151
Meetjestad #3 (Berghotel) (filter)1151 (6.983km)
mjs-gateway-6 (filter)1151

Filter by dataset